sensor_id;sensor_type;location;lat;lon;timestamp;P1;durP1;ratioP1;P2;durP2;ratioP2
66856;SDS011;53766;50.280;19.160;2023-12-20T00:00:37;4.10;;;2.42;;
66856;SDS011;53766;50.280;19.160;2023-12-20T00:03:25;4.45;;;2.72;;
66856;SDS011;53766;50.280;19.160;2023-12-20T00:05:52;5.70;;;2.97;;
66856;SDS011;53766;50.280;19.160;2023-12-20T00:08:20;4.32;;;2.70;;
66856;SDS011;53766;50.280;19.160;2023-12-20T00:10:47;4.43;;;2.65;;
66856;SDS011;53766;50.280;19.160;2023-12-20T00:13:15;4.07;;;2.60;;
66856;SDS011;53766;50.280;19.160;2023-12-20T00:15:42;4.57;;;2.70;;
66856;SDS011;53766;50.280;19.160;2023-12-20T00:18:10;3.90;;;2.38;;
66856;SDS011;53766;50.280;19.160;2023-12-20T00:20:37;3.85;;;2.45;;
66856;SDS011;53766;50.280;19.160;2023-12-20T00:23:05;4.10;;;2.55;;
66856;SDS011;53766;50.280;19.160;2023-12-20T00:25:32;4.35;;;2.67;;
66856;SDS011;53766;50.280;19.160;2023-12-20T00:28:00;4.45;;;2.65;;
66856;SDS011;53766;50.280;19.160;2023-12-20T00:30:28;5.25;;;2.35;;
66856;SDS011;53766;50.280;19.160;2023-12-20T00:32:55;4.75;;;2.88;;
66856;SDS011;53766;50.280;19.160;2023-12-20T00:35:23;4.00;;;2.60;;
66856;SDS011;53766;50.280;19.160;2023-12-20T00:37:51;3.83;;;2.33;;
66856;SDS011;53766;50.280;19.160;2023-12-20T00:40:19;4.15;;;2.30;;
66856;SDS011;53766;50.280;19.160;2023-12-20T00:42:47;4.93;;;2.85;;
66856;SDS011;53766;50.280;19.160;2023-12-20T00:45:15;3.97;;;2.40;;
66856;SDS011;53766;50.280;19.160;2023-12-20T00:47:43;4.25;;;2.50;;
66856;SDS011;53766;50.280;19.160;2023-12-20T00:50:11;4.50;;;2.50;;
66856;SDS011;53766;50.280;19.160;2023-12-20T00:52:38;4.60;;;2.60;;
66856;SDS011;53766;50.280;19.160;2023-12-20T00:55:06;4.15;;;2.33;;
66856;SDS011;53766;50.280;19.160;2023-12-20T00:57:34;4.65;;;2.75;;
66856;SDS011;53766;50.280;19.160;2023-12-20T01:00:01;4.20;;;2.58;;
66856;SDS011;53766;50.280;19.160;2023-12-20T01:02:29;5.18;;;2.60;;
66856;SDS011;53766;50.280;19.160;2023-12-20T01:04:57;5.07;;;2.70;;
66856;SDS011;53766;50.280;19.160;2023-12-20T01:07:24;4.68;;;2.70;;
66856;SDS011;53766;50.280;19.160;2023-12-20T01:09:52;4.70;;;2.60;;
66856;SDS011;53766;50.280;19.160;2023-12-20T01:12:19;4.07;;;2.50;;
66856;SDS011;53766;50.280;19.160;2023-12-20T01:14:47;5.45;;;2.75;;
66856;SDS011;53766;50.280;19.160;2023-12-20T01:17:15;5.25;;;2.80;;
66856;SDS011;53766;50.280;19.160;2023-12-20T01:19:42;3.97;;;2.47;;
66856;SDS011;53766;50.280;19.160;2023-12-20T01:22:10;6.45;;;2.47;;
66856;SDS011;53766;50.280;19.160;2023-12-20T01:24:37;4.43;;;2.38;;
66856;SDS011;53766;50.280;19.160;2023-12-20T01:27:05;3.63;;;2.25;;
66856;SDS011;53766;50.280;19.160;2023-12-20T01:29:32;4.13;;;2.50;;
66856;SDS011;53766;50.280;19.160;2023-12-20T01:32:00;4.32;;;2.78;;
66856;SDS011;53766;50.280;19.160;2023-12-20T01:34:27;4.00;;;2.38;;
66856;SDS011;53766;50.280;19.160;2023-12-20T01:36:55;4.75;;;2.55;;
66856;SDS011;53766;50.280;19.160;2023-12-20T01:39:22;3.90;;;2.35;;
66856;SDS011;53766;50.280;19.160;2023-12-20T01:41:56;4.70;;;2.35;;
66856;SDS011;53766;50.280;19.160;2023-12-20T01:44:23;4.53;;;2.80;;
66856;SDS011;53766;50.280;19.160;2023-12-20T01:46:51;3.28;;;2.30;;
66856;SDS011;53766;50.280;19.160;2023-12-20T01:49:19;3.75;;;2.05;;
66856;SDS011;53766;50.280;19.160;2023-12-20T01:51:47;3.55;;;2.35;;
66856;SDS011;53766;50.280;19.160;2023-12-20T01:54:16;3.75;;;2.28;;
66856;SDS011;53766;50.280;19.160;2023-12-20T01:56:45;4.13;;;2.30;;
66856;SDS011;53766;50.280;19.160;2023-12-20T01:59:13;4.05;;;2.40;;
66856;SDS011;53766;50.280;19.160;2023-12-20T02:01:40;3.83;;;2.33;;
66856;SDS011;53766;50.280;19.160;2023-12-20T02:04:08;3.30;;;2.10;;
66856;SDS011;53766;50.280;19.160;2023-12-20T02:06:36;3.30;;;2.20;;
66856;SDS011;53766;50.280;19.160;2023-12-20T02:09:07;4.10;;;2.58;;
66856;SDS011;53766;50.280;19.160;2023-12-20T02:11:35;4.20;;;2.40;;
66856;SDS011;53766;50.280;19.160;2023-12-20T02:14:03;3.85;;;2.53;;
66856;SDS011;53766;50.280;19.160;2023-12-20T02:16:31;4.30;;;2.40;;
66856;SDS011;53766;50.280;19.160;2023-12-20T02:18:59;3.10;;;2.00;;
66856;SDS011;53766;50.280;19.160;2023-12-20T02:21:32;3.60;;;2.30;;
66856;SDS011;53766;50.280;19.160;2023-12-20T02:24:01;3.55;;;2.25;;
66856;SDS011;53766;50.280;19.160;2023-12-20T02:26:28;4.07;;;2.25;;
66856;SDS011;53766;50.280;19.160;2023-12-20T02:28:56;3.72;;;2.08;;
66856;SDS011;53766;50.280;19.160;2023-12-20T02:31:24;3.65;;;2.00;;
66856;SDS011;53766;50.280;19.160;2023-12-20T02:33:52;4.32;;;2.20;;
66856;SDS011;53766;50.280;19.160;2023-12-20T02:36:19;3.28;;;2.22;;
66856;SDS011;53766;50.280;19.160;2023-12-20T02:38:47;4.88;;;2.38;;
66856;SDS011;53766;50.280;19.160;2023-12-20T02:41:14;2.97;;;2.13;;
66856;SDS011;53766;50.280;19.160;2023-12-20T02:43:45;3.83;;;2.28;;
66856;SDS011;53766;50.280;19.160;2023-12-20T02:46:13;3.80;;;2.25;;
66856;SDS011;53766;50.280;19.160;2023-12-20T02:48:43;3.40;;;2.25;;
66856;SDS011;53766;50.280;19.160;2023-12-20T02:51:10;3.63;;;2.35;;
66856;SDS011;53766;50.280;19.160;2023-12-20T02:53:38;2.60;;;1.90;;
66856;SDS011;53766;50.280;19.160;2023-12-20T02:56:05;3.30;;;1.92;;
66856;SDS011;53766;50.280;19.160;2023-12-20T02:58:33;3.30;;;2.00;;
66856;SDS011;53766;50.280;19.160;2023-12-20T03:01:01;4.03;;;2.45;;
66856;SDS011;53766;50.280;19.160;2023-12-20T03:03:28;3.65;;;2.25;;
66856;SDS011;53766;50.280;19.160;2023-12-20T03:05:56;3.28;;;2.22;;
66856;SDS011;53766;50.280;19.160;2023-12-20T03:08:23;3.53;;;2.20;;
66856;SDS011;53766;50.280;19.160;2023-12-20T03:10:54;3.88;;;2.50;;
66856;SDS011;53766;50.280;19.160;2023-12-20T03:13:22;4.88;;;2.30;;
66856;SDS011;53766;50.280;19.160;2023-12-20T03:15:49;4.50;;;2.53;;
66856;SDS011;53766;50.280;19.160;2023-12-20T03:18:17;3.30;;;2.08;;
66856;SDS011;53766;50.280;19.160;2023-12-20T03:20:45;3.90;;;2.20;;
66856;SDS011;53766;50.280;19.160;2023-12-20T03:23:14;2.90;;;2.08;;
66856;SDS011;53766;50.280;19.160;2023-12-20T03:25:42;4.80;;;2.10;;
66856;SDS011;53766;50.280;19.160;2023-12-20T03:28:10;3.45;;;2.42;;
66856;SDS011;53766;50.280;19.160;2023-12-20T03:30:37;4.32;;;2.60;;
66856;SDS011;53766;50.280;19.160;2023-12-20T03:33:05;3.22;;;2.35;;
66856;SDS011;53766;50.280;19.160;2023-12-20T03:35:32;3.35;;;2.30;;
66856;SDS011;53766;50.280;19.160;2023-12-20T03:38:00;3.55;;;2.15;;
66856;SDS011;53766;50.280;19.160;2023-12-20T03:40:27;2.83;;;2.10;;
66856;SDS011;53766;50.280;19.160;2023-12-20T03:42:55;3.92;;;2.20;;
66856;SDS011;53766;50.280;19.160;2023-12-20T03:45:22;2.90;;;2.08;;
66856;SDS011;53766;50.280;19.160;2023-12-20T03:47:50;2.35;;;1.77;;
66856;SDS011;53766;50.280;19.160;2023-12-20T03:50:22;3.90;;;2.30;;
66856;SDS011;53766;50.280;19.160;2023-12-20T03:52:50;3.83;;;2.20;;
66856;SDS011;53766;50.280;19.160;2023-12-20T03:55:18;3.60;;;2.20;;
66856;SDS011;53766;50.280;19.160;2023-12-20T03:57:46;3.83;;;2.05;;
66856;SDS011;53766;50.280;19.160;2023-12-20T04:00:13;3.92;;;2.42;;
66856;SDS011;53766;50.280;19.160;2023-12-20T04:02:42;3.05;;;2.15;;
66856;SDS011;53766;50.280;19.160;2023-12-20T04:05:10;3.80;;;2.08;;
66856;SDS011;53766;50.280;19.160;2023-12-20T04:07:38;3.80;;;2.28;;
66856;SDS011;53766;50.280;19.160;2023-12-20T04:10:06;3.58;;;2.15;;
66856;SDS011;53766;50.280;19.160;2023-12-20T04:12:34;3.55;;;2.05;;
66856;SDS011;53766;50.280;19.160;2023-12-20T04:15:02;3.13;;;2.13;;
66856;SDS011;53766;50.280;19.160;2023-12-20T04:17:36;3.67;;;2.30;;
66856;SDS011;53766;50.280;19.160;2023-12-20T04:20:04;3.92;;;2.10;;
66856;SDS011;53766;50.280;19.160;2023-12-20T04:22:33;3.88;;;1.90;;
66856;SDS011;53766;50.280;19.160;2023-12-20T04:25:00;3.10;;;1.98;;
66856;SDS011;53766;50.280;19.160;2023-12-20T04:27:28;3.55;;;2.20;;
66856;SDS011;53766;50.280;19.160;2023-12-20T04:29:55;3.47;;;2.25;;
66856;SDS011;53766;50.280;19.160;2023-12-20T04:32:23;3.13;;;2.10;;
66856;SDS011;53766;50.280;19.160;2023-12-20T04:34:50;3.25;;;2.10;;
66856;SDS011;53766;50.280;19.160;2023-12-20T04:37:18;3.47;;;2.17;;
66856;SDS011;53766;50.280;19.160;2023-12-20T04:39:45;3.40;;;2.05;;
66856;SDS011;53766;50.280;19.160;2023-12-20T04:42:13;3.75;;;2.05;;
66856;SDS011;53766;50.280;19.160;2023-12-20T04:44:41;5.47;;;2.25;;
66856;SDS011;53766;50.280;19.160;2023-12-20T04:47:08;4.85;;;2.13;;
66856;SDS011;53766;50.280;19.160;2023-12-20T04:49:36;3.40;;;2.15;;
66856;SDS011;53766;50.280;19.160;2023-12-20T04:52:04;3.60;;;2.25;;
66856;SDS011;53766;50.280;19.160;2023-12-20T04:54:33;3.15;;;1.90;;
66856;SDS011;53766;50.280;19.160;2023-12-20T04:57:00;3.30;;;2.00;;
66856;SDS011;53766;50.280;19.160;2023-12-20T04:59:28;3.45;;;2.22;;
66856;SDS011;53766;50.280;19.160;2023-12-20T05:01:56;2.90;;;1.95;;
66856;SDS011;53766;50.280;19.160;2023-12-20T05:04:24;4.68;;;2.13;;
66856;SDS011;53766;50.280;19.160;2023-12-20T05:06:52;3.92;;;2.58;;
66856;SDS011;53766;50.280;19.160;2023-12-20T05:09:20;2.80;;;1.83;;
66856;SDS011;53766;50.280;19.160;2023-12-20T05:11:47;3.22;;;2.10;;
66856;SDS011;53766;50.280;19.160;2023-12-20T05:14:15;3.10;;;2.10;;
66856;SDS011;53766;50.280;19.160;2023-12-20T05:16:42;2.95;;;2.10;;
66856;SDS011;53766;50.280;19.160;2023-12-20T05:19:10;2.92;;;2.00;;
66856;SDS011;53766;50.280;19.160;2023-12-20T05:21:37;3.15;;;2.00;;
66856;SDS011;53766;50.280;19.160;2023-12-20T05:24:05;2.80;;;1.83;;
66856;SDS011;53766;50.280;19.160;2023-12-20T05:26:32;3.45;;;2.08;;
66856;SDS011;53766;50.280;19.160;2023-12-20T05:29:00;4.07;;;2.17;;
66856;SDS011;53766;50.280;19.160;2023-12-20T05:31:27;4.20;;;2.42;;
66856;SDS011;53766;50.280;19.160;2023-12-20T05:33:55;4.05;;;2.40;;
66856;SDS011;53766;50.280;19.160;2023-12-20T05:36:23;5.10;;;2.55;;
66856;SDS011;53766;50.280;19.160;2023-12-20T05:38:50;7.97;;;2.47;;
66856;SDS011;53766;50.280;19.160;2023-12-20T05:41:18;4.82;;;2.35;;
66856;SDS011;53766;50.280;19.160;2023-12-20T05:43:45;4.35;;;2.58;;
66856;SDS011;53766;50.280;19.160;2023-12-20T05:46:13;4.40;;;2.50;;
66856;SDS011;53766;50.280;19.160;2023-12-20T05:48:40;4.57;;;2.35;;
66856;SDS011;53766;50.280;19.160;2023-12-20T05:51:11;4.25;;;2.00;;
66856;SDS011;53766;50.280;19.160;2023-12-20T05:53:39;5.22;;;2.13;;
66856;SDS011;53766;50.280;19.160;2023-12-20T05:56:07;4.47;;;2.53;;
66856;SDS011;53766;50.280;19.160;2023-12-20T05:58:34;4.45;;;2.35;;
66856;SDS011;53766;50.280;19.160;2023-12-20T06:01:03;6.60;;;2.63;;
66856;SDS011;53766;50.280;19.160;2023-12-20T06:03:31;4.95;;;2.40;;
66856;SDS011;53766;50.280;19.160;2023-12-20T06:06:03;6.10;;;2.53;;
66856;SDS011;53766;50.280;19.160;2023-12-20T06:08:43;8.10;;;2.40;;
66856;SDS011;53766;50.280;19.160;2023-12-20T06:11:11;5.28;;;2.40;;
66856;SDS011;53766;50.280;19.160;2023-12-20T06:13:39;5.07;;;2.40;;
66856;SDS011;53766;50.280;19.160;2023-12-20T06:16:07;4.22;;;2.40;;
66856;SDS011;53766;50.280;19.160;2023-12-20T06:18:35;6.15;;;2.63;;
66856;SDS011;53766;50.280;19.160;2023-12-20T06:21:04;7.70;;;2.53;;
66856;SDS011;53766;50.280;19.160;2023-12-20T06:23:31;5.15;;;2.20;;
66856;SDS011;53766;50.280;19.160;2023-12-20T06:25:59;4.57;;;2.35;;
66856;SDS011;53766;50.280;19.160;2023-12-20T06:28:27;6.63;;;2.30;;
66856;SDS011;53766;50.280;19.160;2023-12-20T06:30:55;6.20;;;2.70;;
66856;SDS011;53766;50.280;19.160;2023-12-20T06:33:24;7.18;;;3.00;;
66856;SDS011;53766;50.280;19.160;2023-12-20T06:35:52;6.20;;;2.30;;
66856;SDS011;53766;50.280;19.160;2023-12-20T06:38:20;5.97;;;2.50;;
66856;SDS011;53766;50.280;19.160;2023-12-20T06:40:47;10.40;;;2.50;;
66856;SDS011;53766;50.280;19.160;2023-12-20T06:43:15;10.50;;;2.78;;
66856;SDS011;53766;50.280;19.160;2023-12-20T06:46:02;4.60;;;2.20;;
66856;SDS011;53766;50.280;19.160;2023-12-20T06:48:30;8.27;;;2.63;;
66856;SDS011;53766;50.280;19.160;2023-12-20T06:50:59;10.10;;;2.80;;
66856;SDS011;53766;50.280;19.160;2023-12-20T06:53:28;6.07;;;2.47;;
66856;SDS011;53766;50.280;19.160;2023-12-20T06:55:56;7.72;;;2.65;;
66856;SDS011;53766;50.280;19.160;2023-12-20T06:58:24;10.05;;;2.22;;
66856;SDS011;53766;50.280;19.160;2023-12-20T07:00:52;8.55;;;2.63;;
66856;SDS011;53766;50.280;19.160;2023-12-20T07:03:20;4.65;;;2.45;;
66856;SDS011;53766;50.280;19.160;2023-12-20T07:05:48;7.93;;;2.50;;
66856;SDS011;53766;50.280;19.160;2023-12-20T07:08:15;5.28;;;2.55;;
66856;SDS011;53766;50.280;19.160;2023-12-20T07:10:43;8.27;;;2.58;;
66856;SDS011;53766;50.280;19.160;2023-12-20T07:13:10;7.10;;;2.88;;
66856;SDS011;53766;50.280;19.160;2023-12-20T07:15:40;8.25;;;2.53;;
66856;SDS011;53766;50.280;19.160;2023-12-20T07:18:08;8.60;;;2.70;;
66856;SDS011;53766;50.280;19.160;2023-12-20T07:20:36;5.57;;;2.70;;
66856;SDS011;53766;50.280;19.160;2023-12-20T07:23:03;7.40;;;2.50;;
66856;SDS011;53766;50.280;19.160;2023-12-20T07:25:31;6.13;;;2.70;;
66856;SDS011;53766;50.280;19.160;2023-12-20T07:28:00;5.00;;;2.70;;
66856;SDS011;53766;50.280;19.160;2023-12-20T07:30:27;6.13;;;2.60;;
66856;SDS011;53766;50.280;19.160;2023-12-20T07:32:55;6.00;;;2.50;;
66856;SDS011;53766;50.280;19.160;2023-12-20T07:35:23;6.43;;;2.28;;
66856;SDS011;53766;50.280;19.160;2023-12-20T07:37:52;4.72;;;2.40;;
66856;SDS011;53766;50.280;19.160;2023-12-20T07:40:20;5.88;;;2.53;;
66856;SDS011;53766;50.280;19.160;2023-12-20T07:42:48;4.68;;;2.42;;
66856;SDS011;53766;50.280;19.160;2023-12-20T07:45:15;5.50;;;2.50;;
66856;SDS011;53766;50.280;19.160;2023-12-20T07:47:43;6.82;;;2.80;;
66856;SDS011;53766;50.280;19.160;2023-12-20T07:50:11;5.55;;;2.30;;
66856;SDS011;53766;50.280;19.160;2023-12-20T07:52:38;6.43;;;2.60;;
66856;SDS011;53766;50.280;19.160;2023-12-20T07:55:06;5.43;;;2.83;;
66856;SDS011;53766;50.280;19.160;2023-12-20T07:57:34;5.40;;;2.60;;
66856;SDS011;53766;50.280;19.160;2023-12-20T08:00:02;8.63;;;2.67;;
66856;SDS011;53766;50.280;19.160;2023-12-20T08:02:31;6.18;;;2.60;;
66856;SDS011;53766;50.280;19.160;2023-12-20T08:04:58;6.25;;;2.88;;
66856;SDS011;53766;50.280;19.160;2023-12-20T08:07:26;4.30;;;2.30;;
66856;SDS011;53766;50.280;19.160;2023-12-20T08:09:54;4.90;;;2.80;;
66856;SDS011;53766;50.280;19.160;2023-12-20T08:12:23;5.80;;;2.45;;
66856;SDS011;53766;50.280;19.160;2023-12-20T08:14:51;6.55;;;2.67;;
66856;SDS011;53766;50.280;19.160;2023-12-20T08:17:18;6.15;;;2.55;;
66856;SDS011;53766;50.280;19.160;2023-12-20T08:19:46;4.45;;;2.40;;
66856;SDS011;53766;50.280;19.160;2023-12-20T08:22:14;7.20;;;3.20;;
66856;SDS011;53766;50.280;19.160;2023-12-20T08:24:41;6.65;;;2.92;;
66856;SDS011;53766;50.280;19.160;2023-12-20T08:27:09;4.88;;;2.67;;
66856;SDS011;53766;50.280;19.160;2023-12-20T08:29:37;5.57;;;2.80;;
66856;SDS011;53766;50.280;19.160;2023-12-20T08:32:04;5.10;;;2.47;;
66856;SDS011;53766;50.280;19.160;2023-12-20T08:34:32;6.32;;;2.58;;
66856;SDS011;53766;50.280;19.160;2023-12-20T08:36:59;5.93;;;2.80;;
66856;SDS011;53766;50.280;19.160;2023-12-20T08:39:27;7.82;;;2.72;;
66856;SDS011;53766;50.280;19.160;2023-12-20T08:41:56;4.72;;;2.65;;
66856;SDS011;53766;50.280;19.160;2023-12-20T08:44:24;5.68;;;2.58;;
66856;SDS011;53766;50.280;19.160;2023-12-20T08:46:52;5.93;;;2.70;;
66856;SDS011;53766;50.280;19.160;2023-12-20T08:49:19;5.82;;;2.55;;
66856;SDS011;53766;50.280;19.160;2023-12-20T08:51:48;4.50;;;2.50;;
66856;SDS011;53766;50.280;19.160;2023-12-20T08:54:15;5.00;;;2.60;;
66856;SDS011;53766;50.280;19.160;2023-12-20T08:56:44;4.60;;;2.38;;
66856;SDS011;53766;50.280;19.160;2023-12-20T08:59:11;6.72;;;2.58;;
66856;SDS011;53766;50.280;19.160;2023-12-20T09:01:39;4.82;;;2.58;;
66856;SDS011;53766;50.280;19.160;2023-12-20T09:04:07;4.13;;;2.33;;
66856;SDS011;53766;50.280;19.160;2023-12-20T09:06:34;4.78;;;3.05;;
66856;SDS011;53766;50.280;19.160;2023-12-20T09:09:03;5.28;;;2.58;;
66856;SDS011;53766;50.280;19.160;2023-12-20T09:11:30;5.80;;;3.13;;
66856;SDS011;53766;50.280;19.160;2023-12-20T09:13:58;5.10;;;2.53;;
66856;SDS011;53766;50.280;19.160;2023-12-20T09:16:26;5.47;;;2.70;;
66856;SDS011;53766;50.280;19.160;2023-12-20T09:18:54;5.05;;;2.53;;
66856;SDS011;53766;50.280;19.160;2023-12-20T09:21:21;5.03;;;2.80;;
66856;SDS011;53766;50.280;19.160;2023-12-20T09:23:49;4.85;;;2.67;;
66856;SDS011;53766;50.280;19.160;2023-12-20T09:26:16;4.80;;;2.95;;
66856;SDS011;53766;50.280;19.160;2023-12-20T09:28:44;4.60;;;2.63;;
66856;SDS011;53766;50.280;19.160;2023-12-20T09:31:12;6.70;;;2.63;;
66856;SDS011;53766;50.280;19.160;2023-12-20T09:33:39;4.20;;;2.55;;
66856;SDS011;53766;50.280;19.160;2023-12-20T09:36:07;5.45;;;2.58;;
66856;SDS011;53766;50.280;19.160;2023-12-20T09:38:35;4.93;;;2.78;;
66856;SDS011;53766;50.280;19.160;2023-12-20T09:41:02;4.55;;;2.78;;
66856;SDS011;53766;50.280;19.160;2023-12-20T09:43:31;6.18;;;2.83;;
66856;SDS011;53766;50.280;19.160;2023-12-20T09:46:05;4.45;;;2.50;;
66856;SDS011;53766;50.280;19.160;2023-12-20T09:48:37;4.78;;;2.88;;
66856;SDS011;53766;50.280;19.160;2023-12-20T09:51:08;5.65;;;2.55;;
66856;SDS011;53766;50.280;19.160;2023-12-20T09:53:35;6.97;;;2.90;;
66856;SDS011;53766;50.280;19.160;2023-12-20T09:56:05;3.88;;;2.38;;
66856;SDS011;53766;50.280;19.160;2023-12-20T09:58:35;4.10;;;2.67;;
66856;SDS011;53766;50.280;19.160;2023-12-20T10:01:05;4.75;;;2.65;;
66856;SDS011;53766;50.280;19.160;2023-12-20T10:03:33;5.13;;;2.67;;
66856;SDS011;53766;50.280;19.160;2023-12-20T10:06:01;4.72;;;2.60;;
66856;SDS011;53766;50.280;19.160;2023-12-20T10:08:29;4.95;;;2.70;;
66856;SDS011;53766;50.280;19.160;2023-12-20T10:10:59;7.70;;;2.85;;
66856;SDS011;53766;50.280;19.160;2023-12-20T10:13:30;3.88;;;2.47;;
66856;SDS011;53766;50.280;19.160;2023-12-20T10:15:59;5.55;;;2.90;;
66856;SDS011;53766;50.280;19.160;2023-12-20T10:18:28;4.30;;;2.42;;
66856;SDS011;53766;50.280;19.160;2023-12-20T10:21:06;4.85;;;2.55;;
66856;SDS011;53766;50.280;19.160;2023-12-20T10:23:34;3.85;;;2.47;;
66856;SDS011;53766;50.280;19.160;2023-12-20T10:26:02;6.80;;;3.10;;
66856;SDS011;53766;50.280;19.160;2023-12-20T10:28:33;4.57;;;3.10;;
66856;SDS011;53766;50.280;19.160;2023-12-20T10:31:02;4.78;;;2.30;;
66856;SDS011;53766;50.280;19.160;2023-12-20T10:33:30;6.70;;;2.70;;
66856;SDS011;53766;50.280;19.160;2023-12-20T10:36:01;4.05;;;2.60;;
66856;SDS011;53766;50.280;19.160;2023-12-20T10:38:30;4.20;;;2.53;;
66856;SDS011;53766;50.280;19.160;2023-12-20T10:40:58;4.90;;;2.55;;
66856;SDS011;53766;50.280;19.160;2023-12-20T10:43:27;4.55;;;2.65;;
66856;SDS011;53766;50.280;19.160;2023-12-20T10:45:56;5.88;;;2.83;;
66856;SDS011;53766;50.280;19.160;2023-12-20T10:48:24;4.30;;;2.67;;
66856;SDS011;53766;50.280;19.160;2023-12-20T10:50:57;5.43;;;2.92;;
66856;SDS011;53766;50.280;19.160;2023-12-20T10:53:25;5.32;;;2.60;;
66856;SDS011;53766;50.280;19.160;2023-12-20T10:55:55;3.75;;;2.70;;
66856;SDS011;53766;50.280;19.160;2023-12-20T10:58:26;4.85;;;2.97;;
66856;SDS011;53766;50.280;19.160;2023-12-20T11:01:00;3.47;;;2.50;;
66856;SDS011;53766;50.280;19.160;2023-12-20T11:03:32;4.53;;;2.40;;
66856;SDS011;53766;50.280;19.160;2023-12-20T11:06:09;6.53;;;2.95;;
66856;SDS011;53766;50.280;19.160;2023-12-20T11:13:55;5.15;;;2.70;;
66856;SDS011;53766;50.280;19.160;2023-12-20T11:16:28;4.47;;;2.75;;
66856;SDS011;53766;50.280;19.160;2023-12-20T11:19:11;3.85;;;2.50;;
66856;SDS011;53766;50.280;19.160;2023-12-20T11:21:41;3.97;;;2.55;;
66856;SDS011;53766;50.280;19.160;2023-12-20T11:24:09;5.60;;;2.75;;
66856;SDS011;53766;50.280;19.160;2023-12-20T11:26:37;4.25;;;2.80;;
66856;SDS011;53766;50.280;19.160;2023-12-20T11:31:59;5.15;;;2.75;;
66856;SDS011;53766;50.280;19.160;2023-12-20T11:34:29;6.57;;;3.50;;
66856;SDS011;53766;50.280;19.160;2023-12-20T11:37:00;5.25;;;2.85;;
66856;SDS011;53766;50.280;19.160;2023-12-20T11:39:29;4.43;;;2.65;;
66856;SDS011;53766;50.280;19.160;2023-12-20T11:42:01;4.55;;;2.58;;
66856;SDS011;53766;50.280;19.160;2023-12-20T11:44:32;5.20;;;3.17;;
66856;SDS011;53766;50.280;19.160;2023-12-20T11:47:00;4.72;;;2.85;;
66856;SDS011;53766;50.280;19.160;2023-12-20T11:49:28;5.32;;;3.20;;
66856;SDS011;53766;50.280;19.160;2023-12-20T11:51:58;4.63;;;2.80;;
66856;SDS011;53766;50.280;19.160;2023-12-20T11:54:27;4.57;;;2.60;;
66856;SDS011;53766;50.280;19.160;2023-12-20T11:56:57;5.18;;;2.85;;
66856;SDS011;53766;50.280;19.160;2023-12-20T11:59:25;4.47;;;2.70;;
66856;SDS011;53766;50.280;19.160;2023-12-20T12:01:52;5.10;;;2.70;;
66856;SDS011;53766;50.280;19.160;2023-12-20T12:04:22;4.85;;;2.88;;
66856;SDS011;53766;50.280;19.160;2023-12-20T12:06:49;5.25;;;2.92;;
66856;SDS011;53766;50.280;19.160;2023-12-20T12:09:17;4.70;;;3.10;;
66856;SDS011;53766;50.280;19.160;2023-12-20T12:11:45;5.40;;;2.60;;
66856;SDS011;53766;50.280;19.160;2023-12-20T12:14:13;4.75;;;2.80;;
66856;SDS011;53766;50.280;19.160;2023-12-20T12:16:43;4.65;;;2.97;;
66856;SDS011;53766;50.280;19.160;2023-12-20T12:19:23;5.63;;;3.20;;
66856;SDS011;53766;50.280;19.160;2023-12-20T12:22:07;5.57;;;2.72;;
66856;SDS011;53766;50.280;19.160;2023-12-20T12:24:41;6.72;;;3.33;;
66856;SDS011;53766;50.280;19.160;2023-12-20T12:27:11;5.28;;;3.25;;
66856;SDS011;53766;50.280;19.160;2023-12-20T12:29:40;4.70;;;2.85;;
66856;SDS011;53766;50.280;19.160;2023-12-20T12:32:08;4.47;;;2.80;;
66856;SDS011;53766;50.280;19.160;2023-12-20T12:34:36;4.93;;;3.03;;
66856;SDS011;53766;50.280;19.160;2023-12-20T12:37:04;5.57;;;3.00;;
66856;SDS011;53766;50.280;19.160;2023-12-20T12:39:32;4.85;;;2.90;;
66856;SDS011;53766;50.280;19.160;2023-12-20T12:42:00;5.35;;;3.15;;
66856;SDS011;53766;50.280;19.160;2023-12-20T12:44:27;6.65;;;3.30;;
66856;SDS011;53766;50.280;19.160;2023-12-20T12:46:55;4.47;;;2.83;;
66856;SDS011;53766;50.280;19.160;2023-12-20T12:49:23;4.57;;;3.00;;
66856;SDS011;53766;50.280;19.160;2023-12-20T12:51:51;4.78;;;2.83;;
66856;SDS011;53766;50.280;19.160;2023-12-20T12:54:19;5.20;;;2.72;;
66856;SDS011;53766;50.280;19.160;2023-12-20T12:56:46;5.13;;;2.80;;
66856;SDS011;53766;50.280;19.160;2023-12-20T12:59:14;6.22;;;3.20;;
66856;SDS011;53766;50.280;19.160;2023-12-20T13:01:42;5.68;;;3.20;;
66856;SDS011;53766;50.280;19.160;2023-12-20T13:04:09;4.72;;;3.08;;
66856;SDS011;53766;50.280;19.160;2023-12-20T13:06:40;5.72;;;3.20;;
66856;SDS011;53766;50.280;19.160;2023-12-20T13:09:09;6.72;;;3.35;;
66856;SDS011;53766;50.280;19.160;2023-12-20T13:11:37;4.93;;;3.00;;
66856;SDS011;53766;50.280;19.160;2023-12-20T13:14:04;4.53;;;2.78;;
66856;SDS011;53766;50.280;19.160;2023-12-20T13:16:32;5.10;;;2.85;;
66856;SDS011;53766;50.280;19.160;2023-12-20T13:19:01;5.40;;;3.00;;
66856;SDS011;53766;50.280;19.160;2023-12-20T13:21:29;4.57;;;3.03;;
66856;SDS011;53766;50.280;19.160;2023-12-20T13:23:57;4.55;;;3.03;;
66856;SDS011;53766;50.280;19.160;2023-12-20T13:26:25;4.63;;;2.75;;
66856;SDS011;53766;50.280;19.160;2023-12-20T13:28:54;4.85;;;2.70;;
66856;SDS011;53766;50.280;19.160;2023-12-20T13:31:22;5.32;;;3.22;;
66856;SDS011;53766;50.280;19.160;2023-12-20T13:33:49;6.07;;;3.13;;
66856;SDS011;53766;50.280;19.160;2023-12-20T13:36:18;5.13;;;3.00;;
66856;SDS011;53766;50.280;19.160;2023-12-20T13:38:46;4.10;;;2.72;;
66856;SDS011;53766;50.280;19.160;2023-12-20T13:41:14;5.80;;;3.10;;
66856;SDS011;53766;50.280;19.160;2023-12-20T13:43:41;4.75;;;3.05;;
66856;SDS011;53766;50.280;19.160;2023-12-20T13:46:10;5.40;;;2.80;;
66856;SDS011;53766;50.280;19.160;2023-12-20T13:48:37;4.60;;;2.97;;
66856;SDS011;53766;50.280;19.160;2023-12-20T13:51:05;5.72;;;3.00;;
66856;SDS011;53766;50.280;19.160;2023-12-20T13:53:33;4.82;;;2.90;;
66856;SDS011;53766;50.280;19.160;2023-12-20T13:56:00;6.50;;;3.00;;
66856;SDS011;53766;50.280;19.160;2023-12-20T13:58:28;5.38;;;3.00;;
66856;SDS011;53766;50.280;19.160;2023-12-20T14:00:56;5.30;;;3.00;;
66856;SDS011;53766;50.280;19.160;2023-12-20T14:03:23;4.82;;;3.10;;
66856;SDS011;53766;50.280;19.160;2023-12-20T14:05:51;4.47;;;2.90;;
66856;SDS011;53766;50.280;19.160;2023-12-20T14:08:18;5.30;;;3.47;;
66856;SDS011;53766;50.280;19.160;2023-12-20T14:10:46;5.00;;;2.90;;
66856;SDS011;53766;50.280;19.160;2023-12-20T14:13:13;5.20;;;3.17;;
66856;SDS011;53766;50.280;19.160;2023-12-20T14:15:41;6.32;;;3.38;;
66856;SDS011;53766;50.280;19.160;2023-12-20T14:18:08;4.93;;;3.22;;
66856;SDS011;53766;50.280;19.160;2023-12-20T14:20:36;6.22;;;3.00;;
66856;SDS011;53766;50.280;19.160;2023-12-20T14:23:06;5.50;;;3.17;;
66856;SDS011;53766;50.280;19.160;2023-12-20T14:25:34;4.90;;;3.30;;
66856;SDS011;53766;50.280;19.160;2023-12-20T14:28:17;5.60;;;3.05;;
66856;SDS011;53766;50.280;19.160;2023-12-20T14:30:46;5.82;;;3.40;;
66856;SDS011;53766;50.280;19.160;2023-12-20T14:33:16;5.38;;;3.15;;
66856;SDS011;53766;50.280;19.160;2023-12-20T14:35:44;5.47;;;3.40;;
66856;SDS011;53766;50.280;19.160;2023-12-20T14:38:12;4.90;;;3.42;;
66856;SDS011;53766;50.280;19.160;2023-12-20T14:40:42;4.68;;;3.38;;
66856;SDS011;53766;50.280;19.160;2023-12-20T14:43:10;5.57;;;3.40;;
66856;SDS011;53766;50.280;19.160;2023-12-20T14:45:37;5.00;;;3.30;;
66856;SDS011;53766;50.280;19.160;2023-12-20T14:48:05;4.97;;;3.10;;